Time;durP1;ratioP1;P1;durP2;ratioP2;P2;SDS_P1;SDS_P2;PMS_P1;PMS_P2;Temp;Humidity;BMP_temperature;BMP_pressure;BME280_temperature;BME280_humidity;BME280_pressure;Samples;Min_cycle;Max_cycle;Signal;HPM_P1;HPM_P2
2021/09/07 00:01:13;;;;;;;8.02;6.40;;;;;;;;;;4976340;28;20039;-60
2021/09/07 00:03:38;;;;;;;8.83;6.47;;;;;;;;;;4976342;28;20054;-59
2021/09/07 00:06:07;;;;;;;9.88;6.32;;;;;;;;;;4975127;28;20254;-60
2021/09/07 00:08:35;;;;;;;9.50;5.97;;;;;;;;;;4976100;28;20023;-60
2021/09/07 00:11:03;;;;;;;9.30;6.18;;;;;;;;;;4975384;28;20023;-60
2021/09/07 00:13:28;;;;;;;11.45;6.35;;;;;;;;;;4975981;28;20050;-57
2021/09/07 00:15:53;;;;;;;9.60;6.35;;;;;;;;;;4972747;28;20014;-60
2021/09/07 00:18:18;;;;;;;8.50;6.43;;;;;;;;;;4972935;28;20026;-60
2021/09/07 00:20:46;;;;;;;8.87;6.67;;;;;;;;;;4975715;28;20109;-58
2021/09/07 00:23:12;;;;;;;10.00;6.85;;;;;;;;;;4975608;28;20641;-59
2021/09/07 00:25:40;;;;;;;8.50;5.90;;;;;;;;;;4976394;28;20027;-60
2021/09/07 00:28:11;;;;;;;11.02;6.85;;;;;;;;;;4975738;28;20405;-59
2021/09/07 00:30:39;;;;;;;8.48;6.00;;;;;;;;;;4974719;28;20023;-60
2021/09/07 00:33:08;;;;;;;9.35;6.30;;;;;;;;;;4976002;28;20030;-60
2021/09/07 00:35:33;;;;;;;8.18;6.57;;;;;;;;;;4975719;28;20034;-55
2021/09/07 00:37:59;;;;;;;7.00;5.85;;;;;;;;;;4975718;28;20031;-60
2021/09/07 00:40:24;;;;;;;10.77;7.37;;;;;;;;;;4975727;28;20097;-60
2021/09/07 00:42:49;;;;;;;10.17;6.47;;;;;;;;;;4975967;28;20299;-60
2021/09/07 00:45:14;;;;;;;8.37;6.47;;;;;;;;;;4975705;28;20278;-59
2021/09/07 00:47:40;;;;;;;9.02;6.53;;;;;;;;;;4975549;28;20365;-59
2021/09/07 00:50:09;;;;;;;9.20;6.32;;;;;;;;;;4975628;28;20031;-60
2021/09/07 00:52:35;;;;;;;9.38;6.50;;;;;;;;;;4975309;28;20041;-60
2021/09/07 00:55:06;;;;;;;10.77;7.20;;;;;;;;;;4975462;28;20463;-59
2021/09/07 00:57:38;;;;;;;8.00;6.50;;;;;;;;;;4975346;28;20029;-60
2021/09/07 01:00:07;;;;;;;9.40;6.22;;;;;;;;;;4974200;28;20027;-58
2021/09/07 01:02:32;;;;;;;7.68;6.15;;;;;;;;;;4974123;28;20022;-58
2021/09/07 01:04:58;;;;;;;8.77;6.68;;;;;;;;;;4973944;28;20092;-59
2021/09/07 01:07:26;;;;;;;11.10;7.10;;;;;;;;;;4973987;28;20026;-60
2021/09/07 01:09:51;;;;;;;12.63;6.97;;;;;;;;;;4973822;28;20489;-58
2021/09/07 01:12:17;;;;;;;9.70;7.10;;;;;;;;;;4994546;23;20043;-61
2021/09/07 01:14:48;;;;;;;11.38;7.13;;;;;;;;;;4974108;28;20049;-60
2021/09/07 01:17:15;;;;;;;9.07;6.38;;;;;;;;;;4974846;28;20078;-60
2021/09/07 01:19:45;;;;;;;10.13;7.28;;;;;;;;;;4980589;28;20030;-61
2021/09/07 01:22:11;;;;;;;11.15;7.53;;;;;;;;;;4981281;28;20425;-60
2021/09/07 01:24:39;;;;;;;9.82;6.75;;;;;;;;;;4994362;28;20026;-59
2021/09/07 01:27:14;;;;;;;9.93;7.13;;;;;;;;;;4985963;28;20035;-60
2021/09/07 01:29:40;;;;;;;9.20;7.25;;;;;;;;;;4973742;28;20022;-60
2021/09/07 01:32:10;;;;;;;11.07;7.35;;;;;;;;;;4974623;28;20089;-61
2021/09/07 01:34:35;;;;;;;11.40;7.97;;;;;;;;;;4974777;28;20021;-61
2021/09/07 01:37:00;;;;;;;10.75;7.35;;;;;;;;;;4974648;28;20465;-61
2021/09/07 01:39:25;;;;;;;10.35;7.07;;;;;;;;;;4974735;28;20022;-60
2021/09/07 01:41:54;;;;;;;10.55;7.40;;;;;;;;;;4974476;28;20494;-61
2021/09/07 01:44:20;;;;;;;11.93;8.07;;;;;;;;;;4973462;28;20031;-61
2021/09/07 01:46:45;;;;;;;12.50;7.90;;;;;;;;;;4974459;28;20125;-61
2021/09/07 01:49:17;;;;;;;10.00;7.80;;;;;;;;;;4974457;28;20026;-60
2021/09/07 01:51:43;;;;;;;10.18;7.47;;;;;;;;;;4973092;28;20019;-61
2021/09/07 01:54:09;;;;;;;10.18;6.93;;;;;;;;;;4974351;28;20030;-59
2021/09/07 01:56:49;;;;;;;10.45;7.60;;;;;;;;;;4991451;28;20491;-58
2021/09/07 01:59:15;;;;;;;10.80;7.35;;;;;;;;;;4993614;28;20028;-60
2021/09/07 02:01:40;;;;;;;10.13;7.18;;;;;;;;;;4993829;28;20110;-59
2021/09/07 02:04:06;;;;;;;9.77;7.28;;;;;;;;;;4993609;28;20478;-59
2021/09/07 02:06:31;;;;;;;10.90;7.83;;;;;;;;;;4993698;28;20377;-60
2021/09/07 02:08:56;;;;;;;12.20;7.88;;;;;;;;;;4992330;28;20473;-59
2021/09/07 02:11:24;;;;;;;11.40;7.43;;;;;;;;;;4993471;28;20145;-60
2021/09/07 02:13:50;;;;;;;10.38;7.13;;;;;;;;;;4993310;28;20293;-58
2021/09/07 02:16:18;;;;;;;13.17;7.73;;;;;;;;;;4993490;28;20065;-58
2021/09/07 02:18:46;;;;;;;9.90;7.00;;;;;;;;;;4993343;28;20285;-60
2021/09/07 02:21:20;;;;;;;10.05;7.75;;;;;;;;;;4984045;28;20034;-61
2021/09/07 02:23:48;;;;;;;9.40;6.85;;;;;;;;;;4973848;28;20019;-60
2021/09/07 02:26:14;;;;;;;9.43;6.78;;;;;;;;;;4973880;28;20488;-61
2021/09/07 02:28:39;;;;;;;10.90;7.63;;;;;;;;;;4973796;28;20101;-61
2021/09/07 02:31:04;;;;;;;11.05;7.05;;;;;;;;;;4973895;28;20058;-61
2021/09/07 02:33:39;;;;;;;8.77;7.05;;;;;;;;;;4973749;28;20060;-60
2021/09/07 02:36:10;;;;;;;10.75;7.72;;;;;;;;;;4973761;28;20054;-61
2021/09/07 02:38:35;;;;;;;11.55;7.28;;;;;;;;;;4973902;28;20031;-59
2021/09/07 02:41:09;;;;;;;11.67;8.37;;;;;;;;;;4973897;28;20053;-60
2021/09/07 02:43:38;;;;;;;12.07;7.93;;;;;;;;;;4973686;28;20409;-60
2021/09/07 02:46:03;;;;;;;10.63;7.30;;;;;;;;;;4973676;28;20054;-60
2021/09/07 02:48:28;;;;;;;12.60;8.00;;;;;;;;;;4973747;28;20474;-61
2021/09/07 02:50:54;;;;;;;13.03;8.47;;;;;;;;;;4972504;28;20015;-60
2021/09/07 02:53:19;;;;;;;12.13;7.78;;;;;;;;;;4973440;28;20408;-60
2021/09/07 02:55:47;;;;;;;13.10;8.10;;;;;;;;;;4972442;28;20026;-60
2021/09/07 02:58:15;;;;;;;11.73;7.53;;;;;;;;;;4973693;28;20504;-60
2021/09/07 03:00:40;;;;;;;12.98;8.25;;;;;;;;;;4973697;28;20019;-60
2021/09/07 03:03:09;;;;;;;12.33;8.43;;;;;;;;;;4973596;28;20029;-59
2021/09/07 03:05:34;;;;;;;9.60;7.10;;;;;;;;;;4973468;28;20270;-57
2021/09/07 03:08:05;;;;;;;11.20;7.83;;;;;;;;;;4973431;28;20366;-60
2021/09/07 03:10:31;;;;;;;11.15;8.07;;;;;;;;;;4976431;28;20269;-60
2021/09/07 03:12:56;;;;;;;11.37;8.03;;;;;;;;;;4977022;28;20039;-59
2021/09/07 03:15:22;;;;;;;13.27;8.98;;;;;;;;;;4976024;28;20262;-61
2021/09/07 03:17:47;;;;;;;11.70;8.15;;;;;;;;;;4977313;28;20030;-60
2021/09/07 03:20:19;;;;;;;11.82;8.50;;;;;;;;;;4984494;28;20038;-60
2021/09/07 03:22:44;;;;;;;9.50;7.53;;;;;;;;;;4980736;28;20034;-59
2021/09/07 03:25:18;;;;;;;11.60;8.27;;;;;;;;;;4975884;28;20110;-60
2021/09/07 03:27:43;;;;;;;10.00;7.90;;;;;;;;;;4977050;28;20388;-59
2021/09/07 03:30:09;;;;;;;11.03;7.93;;;;;;;;;;4976250;28;20135;-56
2021/09/07 03:32:34;;;;;;;13.73;8.63;;;;;;;;;;4976978;28;20262;-60
2021/09/07 03:35:06;;;;;;;12.15;8.25;;;;;;;;;;4986678;28;20026;-57
2021/09/07 03:37:34;;;;;;;13.17;9.20;;;;;;;;;;4996051;28;20022;-59
2021/09/07 03:40:09;;;;;;;12.27;8.65;;;;;;;;;;4996324;28;20033;-60
2021/09/07 03:42:38;;;;;;;11.93;8.48;;;;;;;;;;4994971;28;20018;-59
2021/09/07 03:45:07;;;;;;;10.77;8.60;;;;;;;;;;4994998;28;20026;-59
2021/09/07 03:47:42;;;;;;;11.35;7.90;;;;;;;;;;4996127;28;20045;-58
2021/09/07 03:50:08;;;;;;;12.52;8.80;;;;;;;;;;4996049;28;20067;-61
2021/09/07 03:52:33;;;;;;;21.45;8.80;;;;;;;;;;4996031;28;20149;-56
2021/09/07 03:55:04;;;;;;;12.90;9.20;;;;;;;;;;4996058;28;20027;-57
2021/09/07 03:57:30;;;;;;;11.70;8.63;;;;;;;;;;4996018;28;20381;-60
2021/09/07 03:59:56;;;;;;;13.27;8.60;;;;;;;;;;4995862;28;20018;-60
2021/09/07 04:02:25;;;;;;;10.40;7.50;;;;;;;;;;4995869;28;20046;-61
2021/09/07 04:04:50;;;;;;;10.32;7.95;;;;;;;;;;4995858;28;20029;-60
2021/09/07 04:07:15;;;;;;;12.85;8.25;;;;;;;;;;4994536;28;20023;-60
2021/09/07 04:09:56;;;;;;;10.40;8.25;;;;;;;;;;4995774;28;20026;-60
2021/09/07 04:12:21;;;;;;;11.57;7.55;;;;;;;;;;4995510;28;20636;-60
2021/09/07 04:14:50;;;;;;;9.20;7.67;;;;;;;;;;4995958;28;20080;-61
2021/09/07 04:17:15;;;;;;;12.55;8.52;;;;;;;;;;4994582;28;20269;-61
2021/09/07 04:19:46;;;;;;;11.70;8.65;;;;;;;;;;4990816;28;20025;-60
2021/09/07 04:22:15;;;;;;;11.77;7.82;;;;;;;;;;4984032;28;20389;-61
2021/09/07 04:24:43;;;;;;;12.35;9.05;;;;;;;;;;4976066;28;20058;-61
2021/09/07 04:27:13;;;;;;;12.70;9.05;;;;;;;;;;4975897;28;20046;-60
2021/09/07 04:29:38;;;;;;;17.38;8.80;;;;;;;;;;4976033;28;20109;-59
2021/09/07 04:32:07;;;;;;;14.93;9.37;;;;;;;;;;4974622;28;20123;-60
2021/09/07 04:34:35;;;;;;;14.35;9.55;;;;;;;;;;4974624;28;20284;-59
2021/09/07 04:37:00;;;;;;;13.75;9.35;;;;;;;;;;4974424;28;20516;-59
2021/09/07 04:39:25;;;;;;;11.97;9.07;;;;;;;;;;4975720;28;20074;-59
2021/09/07 04:41:51;;;;;;;12.35;8.90;;;;;;;;;;4975594;28;20274;-60
2021/09/07 04:44:19;;;;;;;14.20;9.40;;;;;;;;;;4975761;28;20137;-59
2021/09/07 04:46:45;;;;;;;13.65;9.40;;;;;;;;;;4975560;28;20113;-61
2021/09/07 04:49:10;;;;;;;16.42;9.55;;;;;;;;;;4975596;28;20094;-60
2021/09/07 04:51:35;;;;;;;11.73;9.37;;;;;;;;;;4975466;28;20111;-61
2021/09/07 04:54:01;;;;;;;13.68;9.43;;;;;;;;;;4974310;28;20019;-60
2021/09/07 04:56:26;;;;;;;13.07;9.32;;;;;;;;;;4975523;28;20417;-61
2021/09/07 04:58:54;;;;;;;11.57;8.43;;;;;;;;;;4975537;28;20026;-61
2021/09/07 05:01:23;;;;;;;14.40;9.38;;;;;;;;;;4973877;28;20353;-60
2021/09/07 05:03:54;;;;;;;15.23;9.73;;;;;;;;;;4974032;28;20114;-59
2021/09/07 05:06:22;;;;;;;14.10;9.27;;;;;;;;;;4974088;28;20029;-59
2021/09/07 05:08:47;;;;;;;14.73;9.38;;;;;;;;;;4973897;28;20034;-60
2021/09/07 05:11:13;;;;;;;14.53;9.43;;;;;;;;;;4975157;28;20078;-58
2021/09/07 05:13:47;;;;;;;12.23;9.30;;;;;;;;;;4973933;28;20781;-61
2021/09/07 05:16:12;;;;;;;13.85;9.82;;;;;;;;;;4975069;28;20317;-61
2021/09/07 05:18:50;;;;;;;12.77;9.13;;;;;;;;;;4975115;28;20502;-61
2021/09/07 05:21:24;;;;;;;12.27;8.07;;;;;;;;;;4986121;28;20269;-61
2021/09/07 05:23:52;;;;;;;12.40;8.63;;;;;;;;;;4974950;28;20031;-61
2021/09/07 05:26:17;;;;;;;11.00;8.13;;;;;;;;;;4974846;28;20386;-61
2021/09/07 05:28:45;;;;;;;14.37;9.33;;;;;;;;;;4974825;28;20041;-61
2021/09/07 05:31:13;;;;;;;11.25;8.48;;;;;;;;;;4974059;28;20313;-60
2021/09/07 05:33:38;;;;;;;12.80;8.77;;;;;;;;;;4973373;28;20027;-60
2021/09/07 05:36:03;;;;;;;12.47;8.37;;;;;;;;;;4973417;28;20041;-59
2021/09/07 05:38:32;;;;;;;12.25;9.07;;;;;;;;;;4974641;28;20270;-61
2021/09/07 05:40:57;;;;;;;13.05;9.07;;;;;;;;;;4974667;28;20113;-61
2021/09/07 05:43:25;;;;;;;15.93;8.73;;;;;;;;;;4973392;28;20458;-61
2021/09/07 05:45:53;;;;;;;11.95;8.40;;;;;;;;;;4974608;28;20258;-61
2021/09/07 05:48:19;;;;;;;15.88;10.00;;;;;;;;;;4974236;28;20019;-59
2021/09/07 05:50:47;;;;;;;14.03;9.87;;;;;;;;;;4974443;28;20097;-59
2021/09/07 05:53:12;;;;;;;13.57;10.07;;;;;;;;;;4974274;28;20285;-59
2021/09/07 05:55:37;;;;;;;15.60;11.03;;;;;;;;;;4974643;28;20019;-60
2021/09/07 05:58:02;;;;;;;14.20;9.87;;;;;;;;;;4985233;28;20656;-60
2021/09/07 06:00:30;;;;;;;14.10;9.57;;;;;;;;;;4980804;28;20305;-60
2021/09/07 06:02:57;;;;;;;16.75;10.15;;;;;;;;;;4993377;28;20266;-61
2021/09/07 06:05:22;;;;;;;14.50;10.05;;;;;;;;;;4944086;28;20046;-61
2021/09/07 06:07:48;;;;;;;15.02;9.75;;;;;;;;;;4992118;28;20027;-59
2021/09/07 06:10:13;;;;;;;15.07;10.00;;;;;;;;;;4993472;28;20105;-60
2021/09/07 06:12:38;;;;;;;15.10;9.60;;;;;;;;;;4991846;28;20030;-60
2021/09/07 06:15:04;;;;;;;13.73;9.77;;;;;;;;;;4985547;28;20122;-61
2021/09/07 06:17:32;;;;;;;14.35;9.93;;;;;;;;;;4986774;28;20381;-61
2021/09/07 06:19:57;;;;;;;14.38;10.02;;;;;;;;;;4990012;28;20379;-57
2021/09/07 06:22:22;;;;;;;13.25;9.65;;;;;;;;;;4967454;28;20099;-59
2021/09/07 06:24:49;;;;;;;13.57;9.68;;;;;;;;;;4975289;28;20117;-61
2021/09/07 06:27:16;;;;;;;15.95;9.52;;;;;;;;;;4974552;28;20027;-61
2021/09/07 06:29:45;;;;;;;12.43;9.82;;;;;;;;;;4979552;28;20049;-61
2021/09/07 06:32:13;;;;;;;14.57;9.57;;;;;;;;;;4970233;28;20046;-58
2021/09/07 06:34:41;;;;;;;12.25;9.93;;;;;;;;;;4958801;28;20027;-61
2021/09/07 06:37:06;;;;;;;12.10;9.00;;;;;;;;;;4958776;28;20030;-61
2021/09/07 06:39:32;;;;;;;12.23;8.83;;;;;;;;;;4964110;28;20027;-60
2021/09/07 06:41:57;;;;;;;13.75;9.35;;;;;;;;;;4971024;28;20024;-58
2021/09/07 06:44:22;;;;;;;12.13;9.20;;;;;;;;;;4982826;28;20513;-61
2021/09/07 06:46:47;;;;;;;16.00;9.80;;;;;;;;;;4979129;28;20081;-61
2021/09/07 06:49:22;;;;;;;13.48;9.05;;;;;;;;;;4972571;28;20309;-61
2021/09/07 06:51:47;;;;;;;13.30;10.00;;;;;;;;;;4971023;28;20011;-61
2021/09/07 06:54:19;;;;;;;13.90;9.23;;;;;;;;;;4992272;28;20029;-59
2021/09/07 06:56:50;;;;;;;12.45;8.90;;;;;;;;;;4992167;28;20265;-60
2021/09/07 06:59:15;;;;;;;12.25;9.23;;;;;;;;;;4992250;28;20106;-61
2021/09/07 07:01:40;;;;;;;16.80;9.37;;;;;;;;;;4992155;28;20089;-61
2021/09/07 07:04:06;;;;;;;14.13;8.68;;;;;;;;;;4992782;28;20324;-61
2021/09/07 07:06:31;;;;;;;12.13;8.48;;;;;;;;;;4973030;28;20098;-59
2021/09/07 07:08:56;;;;;;;11.63;8.85;;;;;;;;;;4972530;28;20581;-60
2021/09/07 07:11:24;;;;;;;10.57;8.27;;;;;;;;;;4972237;28;20036;-61
2021/09/07 07:13:52;;;;;;;11.30;8.57;;;;;;;;;;4985499;28;20305;-49
2021/09/07 07:16:17;;;;;;;12.25;8.77;;;;;;;;;;4991237;28;20433;-51
2021/09/07 07:18:43;;;;;;;12.97;8.60;;;;;;;;;;4971931;28;20022;-49
2021/09/07 07:21:08;;;;;;;13.07;8.73;;;;;;;;;;4971866;28;20783;-52
2021/09/07 07:23:36;;;;;;;11.10;8.20;;;;;;;;;;4972003;28;20281;-51
2021/09/07 07:26:04;;;;;;;10.38;8.68;;;;;;;;;;4971849;28;20277;-51
2021/09/07 07:28:30;;;;;;;15.95;8.73;;;;;;;;;;4973048;28;20023;-50
2021/09/07 07:30:55;;;;;;;11.10;8.40;;;;;;;;;;4971606;28;20027;-55
2021/09/07 07:33:22;;;;;;;11.83;8.23;;;;;;;;;;4972657;28;20433;-50
2021/09/07 07:35:48;;;;;;;15.13;8.70;;;;;;;;;;4972983;28;20313;-49
2021/09/07 07:38:22;;;;;;;12.77;8.40;;;;;;;;;;4970723;28;20148;-51
2021/09/07 07:40:47;;;;;;;12.55;8.65;;;;;;;;;;4972883;28;20273;-50
2021/09/07 07:43:17;;;;;;;11.57;9.15;;;;;;;;;;4972877;28;20023;-49
2021/09/07 07:45:42;;;;;;;10.65;8.15;;;;;;;;;;4973165;28;20517;-52
2021/09/07 07:48:07;;;;;;;10.13;8.00;;;;;;;;;;4972796;28;20066;-50
2021/09/07 07:50:44;;;;;;;11.43;8.50;;;;;;;;;;4971690;28;20072;-52
2021/09/07 07:53:10;;;;;;;12.77;8.25;;;;;;;;;;4973211;28;20570;-49
2021/09/07 07:55:44;;;;;;;12.77;8.50;;;;;;;;;;4975299;28;20023;-52
2021/09/07 07:58:09;;;;;;;15.35;8.45;;;;;;;;;;4975100;28;20281;-49
2021/09/07 08:00:41;;;;;;;9.57;7.17;;;;;;;;;;4976390;28;20019;-49
2021/09/07 08:03:09;;;;;;;10.27;7.80;;;;;;;;;;4974982;28;20102;-53
2021/09/07 08:05:34;;;;;;;10.57;7.97;;;;;;;;;;4976280;28;20457;-54
2021/09/07 08:08:02;;;;;;;10.13;7.30;;;;;;;;;;4976120;28;20058;-55
2021/09/07 08:10:34;;;;;;;13.80;9.15;;;;;;;;;;4976048;28;20026;-50
2021/09/07 08:13:02;;;;;;;10.88;8.50;;;;;;;;;;4980675;28;20038;-53
2021/09/07 08:15:28;;;;;;;11.68;7.57;;;;;;;;;;4968425;28;20161;-53
2021/09/07 08:17:56;;;;;;;11.23;7.55;;;;;;;;;;4976041;28;20113;-52
2021/09/07 08:20:24;;;;;;;11.00;8.30;;;;;;;;;;4974616;28;20027;-51
2021/09/07 08:22:49;;;;;;;11.05;8.45;;;;;;;;;;4975802;28;20049;-55
2021/09/07 08:25:18;;;;;;;13.43;8.20;;;;;;;;;;4975960;28;20471;-53
2021/09/07 08:27:46;;;;;;;10.73;7.68;;;;;;;;;;4974574;28;20947;-50
2021/09/07 08:30:11;;;;;;;11.95;8.40;;;;;;;;;;4974464;28;20474;-51
2021/09/07 08:32:41;;;;;;;10.20;8.40;;;;;;;;;;4975728;28;20053;-49
2021/09/07 08:35:15;;;;;;;10.15;7.97;;;;;;;;;;4974479;28;20537;-51
2021/09/07 08:37:41;;;;;;;12.77;8.23;;;;;;;;;;4975726;28;20069;-48
2021/09/07 08:40:10;;;;;;;12.07;8.15;;;;;;;;;;4975529;28;20031;-47
2021/09/07 08:42:35;;;;;;;8.27;7.18;;;;;;;;;;4975461;28;20059;-51
2021/09/07 08:45:01;;;;;;;10.82;8.10;;;;;;;;;;4975551;28;20054;-48
2021/09/07 08:47:39;;;;;;;11.20;8.00;;;;;;;;;;4975164;28;20561;-52
2021/09/07 08:50:07;;;;;;;11.75;8.30;;;;;;;;;;4989978;28;20029;-52
2021/09/07 08:52:39;;;;;;;11.85;7.88;;;;;;;;;;4994800;28;20449;-51
2021/09/07 08:55:08;;;;;;;12.13;8.43;;;;;;;;;;4994875;28;20029;-49
2021/09/07 08:57:36;;;;;;;10.40;8.07;;;;;;;;;;4995219;28;20488;-51
2021/09/07 09:00:03;;;;;;;12.10;8.52;;;;;;;;;;4994582;28;20037;-50
2021/09/07 09:02:28;;;;;;;11.10;8.55;;;;;;;;;;4994535;28;20397;-54
2021/09/07 09:04:54;;;;;;;15.07;8.95;;;;;;;;;;4994647;28;20022;-51
2021/09/07 09:07:25;;;;;;;12.65;8.73;;;;;;;;;;4993294;28;20034;-51
2021/09/07 09:09:51;;;;;;;11.48;7.95;;;;;;;;;;4994981;28;20022;-52
2021/09/07 09:12:17;;;;;;;10.07;8.50;;;;;;;;;;4993013;28;20500;-55
2021/09/07 09:14:43;;;;;;;9.45;7.53;;;;;;;;;;4991560;28;20385;-52
2021/09/07 09:17:24;;;;;;;12.70;8.27;;;;;;;;;;4974900;28;20037;-56
2021/09/07 09:19:56;;;;;;;10.10;7.95;;;;;;;;;;4974932;28;20394;-56
2021/09/07 09:22:39;;;;;;;11.45;8.18;;;;;;;;;;4973600;28;20030;-56
2021/09/07 09:25:20;;;;;;;11.63;7.80;;;;;;;;;;4975151;28;20062;-54
2021/09/07 09:27:46;;;;;;;10.15;8.20;;;;;;;;;;4974763;28;20027;-52
2021/09/07 09:30:11;;;;;;;12.75;7.95;;;;;;;;;;4974728;28;20026;-57
2021/09/07 09:32:50;;;;;;;9.73;8.10;;;;;;;;;;4974519;28;20026;-56
2021/09/07 09:35:24;;;;;;;10.88;8.30;;;;;;;;;;4957308;28;20041;-57
2021/09/07 09:37:59;;;;;;;11.32;7.78;;;;;;;;;;4974791;28;20066;-56
2021/09/07 09:40:25;;;;;;;11.15;8.45;;;;;;;;;;4973284;28;20019;-56
2021/09/07 09:42:51;;;;;;;11.93;8.88;;;;;;;;;;4974520;28;20031;-55
2021/09/07 09:45:16;;;;;;;12.93;8.02;;;;;;;;;;4974501;28;20035;-55
2021/09/07 09:47:43;;;;;;;10.23;8.07;;;;;;;;;;4974276;28;20392;-52
2021/09/07 09:50:14;;;;;;;10.52;8.43;;;;;;;;;;4974311;28;20046;-54
2021/09/07 09:52:46;;;;;;;13.10;9.07;;;;;;;;;;4973007;28;20494;-50
2021/09/07 09:55:15;;;;;;;11.43;8.77;;;;;;;;;;4972999;28;20023;-51
2021/09/07 09:57:41;;;;;;;9.00;8.10;;;;;;;;;;4973042;28;20062;-55
2021/09/07 10:00:08;;;;;;;10.48;8.15;;;;;;;;;;4972904;28;20030;-57
2021/09/07 10:02:40;;;;;;;12.13;8.13;;;;;;;;;;4972793;28;20436;-53
2021/09/07 10:05:06;;;;;;;8.52;7.40;;;;;;;;;;4974076;28;20478;-51
2021/09/07 10:07:32;;;;;;;10.57;8.98;;;;;;;;;;4972743;28;20034;-55
2021/09/07 10:09:58;;;;;;;12.05;8.80;;;;;;;;;;4973971;28;20413;-56
2021/09/07 10:12:28;;;;;;;9.90;8.52;;;;;;;;;;4973802;28;20039;-56
2021/09/07 10:25:46;;;;;;;10.07;8.30;;;;;;;;;;4973760;28;20544;-51
2021/09/07 10:28:12;;;;;;;11.27;9.30;;;;;;;;;;4973779;28;20062;-55
2021/09/07 10:31:15;;;;;;;11.15;8.80;;;;;;;;;;4973775;28;20050;-54
2021/09/07 10:33:56;;;;;;;13.40;9.18;;;;;;;;;;4990520;28;20018;-55
2021/09/07 10:36:23;;;;;;;13.32;9.82;;;;;;;;;;4990737;28;20027;-55
2021/09/07 10:38:55;;;;;;;12.77;8.63;;;;;;;;;;4990747;28;20074;-54
2021/09/07 10:41:30;;;;;;;13.07;10.43;;;;;;;;;;4974569;28;20151;-52
2021/09/07 10:43:58;;;;;;;11.05;9.43;;;;;;;;;;4990565;28;20412;-51
2021/09/07 10:46:38;;;;;;;11.43;8.88;;;;;;;;;;4974461;28;20026;-55
2021/09/07 10:49:40;;;;;;;14.73;9.02;;;;;;;;;;4990423;28;20077;-54
2021/09/07 10:52:15;;;;;;;11.77;9.00;;;;;;;;;;4981143;28;20037;-57
2021/09/07 10:55:14;;;;;;;12.05;9.20;;;;;;;;;;4974234;28;20477;-57
2021/09/07 10:57:43;;;;;;;12.43;8.30;;;;;;;;;;4974207;28;20038;-54
2021/09/07 11:00:14;;;;;;;11.00;9.50;;;;;;;;;;4974300;28;20389;-52
2021/09/07 11:02:48;;;;;;;13.20;9.55;;;;;;;;;;4990435;28;20085;-55
2021/09/07 11:05:20;;;;;;;9.63;8.55;;;;;;;;;;4976250;28;20038;-54
2021/09/07 11:07:46;;;;;;;14.45;9.55;;;;;;;;;;4972021;28;20027;-57
2021/09/07 11:10:15;;;;;;;11.15;8.77;;;;;;;;;;4973153;28;20023;-57
2021/09/07 11:12:50;;;;;;;10.18;9.18;;;;;;;;;;4971841;28;20039;-54
2021/09/07 11:15:17;;;;;;;13.98;8.63;;;;;;;;;;4984877;28;20089;-55
2021/09/07 11:17:57;;;;;;;10.77;9.23;;;;;;;;;;4971954;28;20023;-54
2021/09/07 11:20:27;;;;;;;10.25;8.20;;;;;;;;;;4973258;28;20561;-55
2021/09/07 11:22:55;;;;;;;10.00;8.05;;;;;;;;;;4971874;28;20034;-57
2021/09/07 11:25:21;;;;;;;10.30;8.80;;;;;;;;;;4973160;28;20123;-57
2021/09/07 11:27:48;;;;;;;11.60;8.35;;;;;;;;;;4972939;28;20081;-57
2021/09/07 11:30:41;;;;;;;10.10;8.45;;;;;;;;;;4973773;28;20478;-55
2021/09/07 11:33:36;;;;;;;9.13;8.15;;;;;;;;;;4975495;28;20142;-58
2021/09/07 11:36:05;;;;;;;10.30;8.80;;;;;;;;;;4980186;28;20042;-53
2021/09/07 11:38:37;;;;;;;11.45;8.75;;;;;;;;;;4976848;28;20552;-54
2021/09/07 11:41:03;;;;;;;10.63;8.52;;;;;;;;;;4976790;28;20026;-57
2021/09/07 11:43:56;;;;;;;10.82;8.73;;;;;;;;;;4976655;28;20045;-55
2021/09/07 11:46:30;;;;;;;13.00;9.35;;;;;;;;;;4976788;28;20113;-52
2021/09/07 11:49:04;;;;;;;9.45;8.25;;;;;;;;;;4976565;28;20050;-56
2021/09/07 11:51:30;;;;;;;10.73;8.57;;;;;;;;;;4976488;28;20100;-53
2021/09/07 11:53:58;;;;;;;8.70;7.80;;;;;;;;;;4975179;28;20508;-57
2021/09/07 11:56:26;;;;;;;10.73;8.77;;;;;;;;;;4976564;28;20054;-53
2021/09/07 11:58:51;;;;;;;10.52;8.70;;;;;;;;;;4976393;28;20022;-54
2021/09/07 12:01:19;;;;;;;9.90;8.32;;;;;;;;;;4975434;28;20548;-56
2021/09/07 12:03:46;;;;;;;8.65;7.22;;;;;;;;;;4966987;28;20528;-55
2021/09/07 12:06:17;;;;;;;8.80;7.53;;;;;;;;;;4984351;28;20038;-54
2021/09/07 12:08:47;;;;;;;9.43;7.47;;;;;;;;;;4987967;28;20030;-57
2021/09/07 12:11:32;;;;;;;9.10;8.10;;;;;;;;;;4983453;28;20034;-54
2021/09/07 12:14:05;;;;;;;10.07;8.00;;;;;;;;;;4974677;28;20440;-53
2021/09/07 12:16:31;;;;;;;10.23;7.50;;;;;;;;;;4983649;28;20026;-51
2021/09/07 12:18:58;;;;;;;9.63;7.20;;;;;;;;;;4985377;28;20057;-55
2021/09/07 12:21:27;;;;;;;11.70;7.95;;;;;;;;;;4984324;28;20058;-51
2021/09/07 12:23:53;;;;;;;9.18;7.63;;;;;;;;;;4974594;28;20027;-48
2021/09/07 12:26:36;;;;;;;10.05;7.70;;;;;;;;;;4974614;28;20026;-51
2021/09/07 12:29:01;;;;;;;;;;;;;;;;;;4974670;28;20674;-51
2021/09/07 12:31:26;;;;;;;12.38;7.68;;;;;;;;;;4974398;28;20369;-49
2021/09/07 12:33:52;;;;;;;9.55;7.68;;;;;;;;;;4974296;28;20110;-53
2021/09/07 12:36:23;;;;;;;10.68;7.50;;;;;;;;;;4973110;28;20019;-54
2021/09/07 12:38:49;;;;;;;8.40;7.35;;;;;;;;;;4972692;28;20026;-55
2021/09/07 12:41:16;;;;;;;11.02;7.70;;;;;;;;;;4973931;28;20101;-52
2021/09/07 12:43:44;;;;;;;8.90;7.25;;;;;;;;;;4972732;28;20038;-61
2021/09/07 12:46:11;;;;;;;11.25;8.63;;;;;;;;;;4972981;28;20572;-48
2021/09/07 12:48:38;;;;;;;8.88;7.72;;;;;;;;;;4964582;28;20030;-50
2021/09/07 12:51:06;;;;;;;11.57;8.60;;;;;;;;;;4982522;28;20457;-52
2021/09/07 12:53:37;;;;;;;11.45;7.90;;;;;;;;;;4979770;28;20485;-52
2021/09/07 12:56:03;;;;;;;13.38;7.55;;;;;;;;;;4985694;28;20034;-51
2021/09/07 12:58:30;;;;;;;11.30;8.07;;;;;;;;;;4961332;28;20128;-54
2021/09/07 13:00:55;;;;;;;13.18;7.95;;;;;;;;;;4982544;28;20023;-54
2021/09/07 13:03:20;;;;;;;10.20;7.85;;;;;;;;;;4986223;28;20046;-57
2021/09/07 13:05:45;;;;;;;10.48;7.65;;;;;;;;;;4995036;28;20018;-48
2021/09/07 13:08:11;;;;;;;8.00;7.07;;;;;;;;;;4994423;28;20026;-48
2021/09/07 13:10:36;;;;;;;9.68;7.70;;;;;;;;;;4979413;28;20019;-49
2021/09/07 13:13:02;;;;;;;9.63;7.53;;;;;;;;;;4975461;28;20050;-55
2021/09/07 13:15:27;;;;;;;9.70;7.10;;;;;;;;;;4974998;28;20031;-55
2021/09/07 13:17:55;;;;;;;8.85;7.00;;;;;;;;;;4974730;28;20035;-52
2021/09/07 13:20:20;;;;;;;8.15;6.72;;;;;;;;;;4974271;28;20054;-52
2021/09/07 13:22:46;;;;;;;11.70;7.45;;;;;;;;;;4979447;28;20026;-57
2021/09/07 13:25:14;;;;;;;9.35;7.10;;;;;;;;;;4974552;28;20022;-53
2021/09/07 13:27:39;;;;;;;8.30;6.82;;;;;;;;;;4977546;28;20066;-52
2021/09/07 13:30:08;;;;;;;9.07;6.95;;;;;;;;;;4983846;28;20074;-56
2021/09/07 13:32:33;;;;;;;9.60;7.22;;;;;;;;;;4977226;28;20053;-58
2021/09/07 13:34:58;;;;;;;8.07;7.15;;;;;;;;;;4973618;28;20019;-55
2021/09/07 13:37:24;;;;;;;10.55;6.95;;;;;;;;;;4972569;28;20417;-57
2021/09/07 13:39:49;;;;;;;10.23;6.80;;;;;;;;;;4973548;28;20486;-56
2021/09/07 13:42:14;;;;;;;7.90;6.53;;;;;;;;;;4974005;28;20019;-54
2021/09/07 13:44:40;;;;;;;6.85;6.15;;;;;;;;;;4973476;28;20019;-54
2021/09/07 13:47:05;;;;;;;7.77;5.53;;;;;;;;;;4973641;28;20030;-52
2021/09/07 13:49:30;;;;;;;10.25;6.00;;;;;;;;;;4972568;28;20293;-55
2021/09/07 13:51:55;;;;;;;7.30;5.63;;;;;;;;;;4976934;28;20062;-52
2021/09/07 13:54:22;;;;;;;7.93;6.03;;;;;;;;;;4973143;28;20157;-55
2021/09/07 13:56:47;;;;;;;7.22;6.50;;;;;;;;;;4974180;28;20161;-55
2021/09/07 13:59:12;;;;;;;8.43;6.13;;;;;;;;;;4971682;28;20079;-57
2021/09/07 14:01:38;;;;;;;8.52;5.85;;;;;;;;;;4972028;28;20046;-54
2021/09/07 14:04:03;;;;;;;8.25;6.30;;;;;;;;;;4973036;28;20437;-55
2021/09/07 14:06:28;;;;;;;6.38;5.60;;;;;;;;;;4980829;28;20166;-59
2021/09/07 14:08:53;;;;;;;7.37;5.83;;;;;;;;;;4986114;28;20045;-57
2021/09/07 14:11:21;;;;;;;7.30;5.72;;;;;;;;;;4992628;28;20390;-57
2021/09/07 14:13:47;;;;;;;9.82;5.82;;;;;;;;;;4991598;28;20506;-58
2021/09/07 14:16:15;;;;;;;8.15;5.43;;;;;;;;;;4992273;28;20149;-59
2021/09/07 14:18:41;;;;;;;6.70;5.68;;;;;;;;;;4993327;28;20027;-57
2021/09/07 14:21:09;;;;;;;6.43;5.57;;;;;;;;;;4992223;28;20024;-58
2021/09/07 14:23:35;;;;;;;10.63;5.70;;;;;;;;;;4993380;28;20053;-56
2021/09/07 14:26:12;;;;;;;8.87;5.10;;;;;;;;;;4993448;28;20026;-58
2021/09/07 14:28:37;;;;;;;8.07;5.15;;;;;;;;;;4979660;28;20031;-58
2021/09/07 14:31:03;;;;;;;8.55;5.00;;;;;;;;;;4993363;28;20024;-57
2021/09/07 14:33:28;;;;;;;6.22;5.03;;;;;;;;;;4993200;28;20030;-58
2021/09/07 14:35:53;;;;;;;7.10;4.70;;;;;;;;;;4993274;28;20386;-59
2021/09/07 14:38:20;;;;;;;6.70;5.17;;;;;;;;;;4991996;28;20061;-58
2021/09/07 14:40:45;;;;;;;6.10;5.25;;;;;;;;;;4991953;28;20048;-55
2021/09/07 14:43:17;;;;;;;5.97;5.23;;;;;;;;;;4993037;28;20048;-56
2021/09/07 14:45:42;;;;;;;5.65;4.55;;;;;;;;;;4993101;28;20712;-58
2021/09/07 14:48:17;;;;;;;6.27;5.00;;;;;;;;;;4991871;28;20057;-56
2021/09/07 14:50:44;;;;;;;7.20;4.70;;;;;;;;;;4993239;28;20054;-58